Time;durP1;ratioP1;P1;durP2;ratioP2;P2;SDS_P1;SDS_P2;PMS_P1;PMS_P2;Temp;Humidity;BMP_temperature;BMP_pressure;BME280_temperature;BME280_humidity;BME280_pressure;Samples;Min_cycle;Max_cycle;Signal;HPM_P1;HPM_P2
2022/12/31 00:02:01;;;;;;;25.80;11.75;;;;;;;4.29;89.12;100947.98;1581936;91;21268;-53
2022/12/31 00:04:31;;;;;;;28.15;12.00;;;;;;;4.26;88.99;100956.91;1561466;91;21260;-56
2022/12/31 00:07:01;;;;;;;38.98;17.60;;;;;;;4.19;88.87;100955.77;1581686;91;21208;-53
2022/12/31 00:09:34;;;;;;;35.35;18.17;;;;;;;4.04;87.94;100960.77;1581560;91;21640;-53
2022/12/31 00:12:05;;;;;;;36.53;19.02;;;;;;;3.83;87.47;100968.49;1581530;91;21608;-53
2022/12/31 00:14:35;;;;;;;33.48;16.23;;;;;;;3.63;87.20;100965.89;1581577;91;21173;-53
2022/12/31 00:17:06;;;;;;;32.70;16.15;;;;;;;3.47;87.27;100977.25;1597185;88;21222;-54
2022/12/31 00:19:36;;;;;;;30.57;15.28;;;;;;;3.36;87.61;100980.92;1590426;90;21272;-52
2022/12/31 00:22:06;;;;;;;30.43;15.43;;;;;;;3.27;87.75;100970.91;1590771;90;21162;-53
2022/12/31 00:24:35;;;;;;;31.90;16.23;;;;;;;3.20;87.84;100983.25;1590321;90;21202;-53
2022/12/31 00:27:05;;;;;;;34.30;15.98;;;;;;;3.15;88.01;100983.66;1590486;90;21241;-55
2022/12/31 00:29:38;;;;;;;40.70;17.57;;;;;;;3.10;88.09;100985.06;1590378;90;21210;-54
2022/12/31 00:32:07;;;;;;;32.15;16.48;;;;;;;3.06;88.13;100993.09;1590190;90;21650;-53
2022/12/31 00:34:37;;;;;;;31.33;15.55;;;;;;;2.99;88.10;100990.06;1590438;90;21210;-54
2022/12/31 00:37:07;;;;;;;31.45;14.90;;;;;;;2.92;88.28;100988.03;1606874;86;21167;-54
2022/12/31 00:39:37;;;;;;;29.27;16.07;;;;;;;2.86;88.39;100994.84;1665696;86;21202;-54
2022/12/31 00:42:07;;;;;;;31.25;16.60;;;;;;;2.78;88.57;100992.80;1615779;89;21194;-53
2022/12/31 00:44:39;;;;;;;33.95;15.83;;;;;;;2.75;88.78;100998.48;1615942;89;21146;-53
2022/12/31 00:47:09;;;;;;;28.45;15.10;;;;;;;2.70;88.88;100996.66;1616090;89;21586;-53
2022/12/31 00:49:40;;;;;;;35.08;16.07;;;;;;;2.66;89.08;100997.06;1616066;89;21209;-53
2022/12/31 00:52:12;;;;;;;31.37;14.93;;;;;;;2.62;89.31;100995.12;1615860;89;21174;-53
2022/12/31 00:54:41;;;;;;;33.60;16.15;;;;;;;2.60;89.41;100994.39;1615771;89;21234;-53
2022/12/31 00:57:11;;;;;;;33.98;16.97;;;;;;;2.55;89.42;100992.05;1615859;89;21205;-53
2022/12/31 00:59:41;;;;;;;33.20;16.12;;;;;;;2.51;89.37;101000.56;1627881;86;21178;-53
2022/12/31 01:02:10;;;;;;;28.92;15.32;;;;;;;2.43;89.40;101001.70;1665507;86;21278;-54
2022/12/31 01:04:40;;;;;;;30.32;15.40;;;;;;;2.41;89.44;101000.98;1665518;86;21194;-52
2022/12/31 01:07:10;;;;;;;27.70;15.03;;;;;;;2.40;89.51;101012.78;1665552;86;21147;-53
2022/12/31 01:09:40;;;;;;;35.50;17.50;;;;;;;2.35;89.54;101019.08;1665869;86;21547;-53
2022/12/31 01:12:10;;;;;;;38.70;18.65;;;;;;;2.32;89.55;101012.58;1665878;86;21158;-52
2022/12/31 01:14:41;;;;;;;51.00;25.90;;;;;;;2.28;89.69;101014.69;1665505;86;21187;-53
2022/12/31 01:17:12;;;;;;;52.80;24.98;;;;;;;2.25;89.64;101018.14;1666356;86;21186;-54
2022/12/31 01:19:42;;;;;;;57.70;27.07;;;;;;;2.18;89.71;101015.95;1671251;86;21599;-53
2022/12/31 01:22:11;;;;;;;61.05;30.52;;;;;;;2.15;89.72;101021.61;1621959;86;21267;-54
2022/12/31 01:24:41;;;;;;;44.80;23.07;;;;;;;2.10;89.72;101021.64;1670950;86;21201;-54
2022/12/31 01:27:11;;;;;;;34.63;18.40;;;;;;;2.05;89.73;101019.31;1671444;86;21194;-54
2022/12/31 01:29:40;;;;;;;39.60;19.35;;;;;;;2.02;89.79;101016.87;1670908;86;21166;-54
2022/12/31 01:32:10;;;;;;;37.78;18.55;;;;;;;1.97;89.87;101019.09;1671168;86;21198;-54
2022/12/31 01:34:41;;;;;;;39.83;18.80;;;;;;;1.95;90.07;101026.94;1671249;86;21163;-52
2022/12/31 01:37:11;;;;;;;34.20;17.65;;;;;;;1.91;90.00;101024.98;1671111;86;21150;-53
2022/12/31 01:39:40;;;;;;;35.13;16.77;;;;;;;1.87;90.04;101037.88;1671006;86;21182;-52
2022/12/31 01:42:11;;;;;;;40.05;19.10;;;;;;;1.86;90.16;101038.88;1670970;86;21123;-54
2022/12/31 01:44:51;;;;;;;40.12;19.30;;;;;;;1.85;90.26;101041.20;1671317;86;21174;-53
2022/12/31 01:47:35;;;;;;;36.75;18.00;;;;;;;1.80;90.46;101034.47;1670943;86;21150;-52
2022/12/31 01:50:23;;;;;;;34.67;16.97;;;;;;;1.78;90.52;101029.67;1671078;86;21183;-53
2022/12/31 01:52:56;;;;;;;28.92;15.25;;;;;;;1.76;90.68;101033.86;1671140;86;21147;-52
2022/12/31 01:55:37;;;;;;;34.55;16.57;;;;;;;1.78;90.92;101017.03;1671179;86;21245;-53
2022/12/31 01:58:21;;;;;;;35.80;17.70;;;;;;;1.83;91.28;101027.45;1643222;86;21139;-52
2022/12/31 02:00:52;;;;;;;30.45;16.23;;;;;;;1.85;91.32;101023.64;1670993;86;21234;-53
2022/12/31 02:03:22;;;;;;;30.23;15.68;;;;;;;1.86;91.34;101028.55;1671055;86;21154;-54
2022/12/31 02:06:23;;;;;;;32.55;16.07;;;;;;;1.84;91.24;101036.78;1642427;86;21175;-53
2022/12/31 02:08:52;;;;;;;31.68;15.18;;;;;;;1.80;91.14;101036.67;1670778;86;21261;-53
2022/12/31 02:11:30;;;;;;;27.70;14.18;;;;;;;1.76;91.16;101033.00;1671227;86;21182;-53
2022/12/31 02:14:03;;;;;;;30.20;15.70;;;;;;;1.75;91.27;101037.54;1642716;86;21162;-52
2022/12/31 02:16:56;;;;;;;31.48;17.00;;;;;;;1.72;91.18;101037.80;1671085;86;21277;-53
2022/12/31 02:19:57;;;;;;;35.43;17.52;;;;;;;1.67;91.11;101050.81;1670922;86;21250;-52
2022/12/31 02:23:09;;;;;;;34.73;16.77;;;;;;;1.62;91.16;101050.83;1670112;86;21150;-53
2022/12/31 02:26:21;;;;;;;34.55;17.02;;;;;;;1.62;91.29;101050.83;1671024;86;21186;-53
2022/12/31 02:29:15;;;;;;;38.55;17.07;;;;;;;1.58;91.26;101057.82;1670999;86;21190;-54
2022/12/31 02:31:58;;;;;;;33.20;16.65;;;;;;;1.55;91.37;101059.91;1671283;86;21590;-51
2022/12/31 02:34:35;;;;;;;34.03;16.30;;;;;;;1.56;91.55;101065.19;1564918;90;21342;-53
2022/12/31 02:37:08;;;;;;;30.35;14.58;;;;;;;1.59;91.61;101070.34;1585088;90;21282;-53
2022/12/31 02:39:37;;;;;;;29.67;15.08;;;;;;;1.59;91.50;101064.94;1584704;90;21280;-54
2022/12/31 02:42:07;;;;;;;28.62;15.10;;;;;;;1.57;91.48;101061.50;1564287;90;21177;-52
2022/12/31 02:44:40;;;;;;;26.80;14.73;;;;;;;1.56;91.45;101068.38;1564685;90;21221;-53
2022/12/31 02:47:24;;;;;;;28.67;14.50;;;;;;;1.50;91.38;101064.33;1584446;90;21667;-53
2022/12/31 02:50:14;;;;;;;28.80;13.25;;;;;;;1.46;91.43;101058.81;1584677;89;21170;-53
2022/12/31 02:53:11;;;;;;;27.20;13.25;;;;;;;1.44;91.42;101063.47;1631549;86;21165;-53
2022/12/31 02:56:02;;;;;;;25.70;11.07;;;;;;;1.44;91.67;101067.52;1670940;86;21286;-53
2022/12/31 03:02:12;;;;;;;32.28;15.18;;;;;;;1.48;91.84;101069.48;1667502;86;21333;-53
2022/12/31 03:04:52;;;;;;;27.77;14.70;;;;;;;1.40;91.85;101068.75;1670855;86;21158;-54
2022/12/31 03:07:27;;;;;;;30.17;14.80;;;;;;;1.41;92.00;101073.66;1671148;86;21154;-53
2022/12/31 03:09:57;;;;;;;27.85;15.18;;;;;;;1.39;91.90;101072.92;1670927;86;21193;-55
2022/12/31 03:12:50;;;;;;;29.20;14.73;;;;;;;1.38;91.95;101066.66;1671034;86;21146;-53
2022/12/31 03:15:27;;;;;;;28.70;14.20;;;;;;;1.40;92.20;101070.10;1646884;86;21123;-52
2022/12/31 03:18:06;;;;;;;33.15;15.50;;;;;;;1.38;92.22;101068.51;1671015;86;21558;-53
2022/12/31 03:23:36;;;;;;;30.57;15.38;;;;;;;1.42;92.62;101072.19;1584671;90;21289;-53
2022/12/31 03:26:10;;;;;;;47.88;20.62;;;;;;;1.43;92.54;101076.61;1584706;90;21150;-52
2022/12/31 03:28:46;;;;;;;46.30;21.10;;;;;;;1.42;92.40;101068.63;1584753;90;21214;-53
2022/12/31 03:31:14;;;;;;;52.40;24.57;;;;;;;1.41;92.30;101069.61;1564186;90;21182;-52
2022/12/31 03:33:45;;;;;;;51.77;23.90;;;;;;;1.39;92.22;101067.52;1585107;90;21154;-53
2022/12/31 03:36:15;;;;;;;46.00;22.00;;;;;;;1.36;92.15;101065.93;1584865;90;21358;-54
2022/12/31 03:38:46;;;;;;;36.53;18.20;;;;;;;1.34;92.03;101061.63;1584782;90;21170;-53
2022/12/31 03:41:19;;;;;;;35.48;17.92;;;;;;;1.31;91.90;101065.44;1594974;86;21195;-53
2022/12/31 03:43:49;;;;;;;35.38;17.10;;;;;;;1.28;91.65;101071.05;1671049;86;21162;-52
2022/12/31 03:46:18;;;;;;;31.82;16.50;;;;;;;1.17;91.36;101075.09;1670975;86;21139;-52
2022/12/31 03:48:50;;;;;;;36.38;16.73;;;;;;;1.09;91.40;101069.43;1642471;86;21158;-53
2022/12/31 03:51:19;;;;;;;34.27;17.17;;;;;;;1.04;91.61;101081.08;1671258;86;21170;-54
2022/12/31 03:53:49;;;;;;;36.08;16.23;;;;;;;1.02;91.80;101091.13;1671103;86;21159;-54
2022/12/31 03:56:19;;;;;;;33.35;15.70;;;;;;;1.05;91.96;101086.84;1671042;86;21174;-52
2022/12/31 03:58:51;;;;;;;35.85;16.65;;;;;;;1.05;91.93;101083.66;1642554;86;21174;-52
2022/12/31 04:01:23;;;;;;;30.52;15.40;;;;;;;1.06;91.99;101088.56;1642152;86;21134;-52
2022/12/31 04:03:53;;;;;;;33.05;16.05;;;;;;;1.08;92.26;101091.52;1642514;86;21163;-53
2022/12/31 04:06:23;;;;;;;30.57;15.38;;;;;;;1.14;92.61;101087.47;1671423;86;21190;-53
2022/12/31 04:08:53;;;;;;;32.17;15.72;;;;;;;1.19;92.70;101094.72;1671018;86;21305;-53
2022/12/31 04:11:25;;;;;;;33.70;15.03;;;;;;;1.20;92.70;101094.59;1671343;86;21747;-53
2022/12/31 04:13:58;;;;;;;29.18;15.43;;;;;;;1.22;92.84;101089.08;1609929;89;21250;-53
2022/12/31 04:16:28;;;;;;;31.85;14.90;;;;;;;1.26;92.85;101088.72;1610052;89;21268;-53
2022/12/31 04:18:58;;;;;;;28.12;14.98;;;;;;;1.26;92.76;101090.55;1609739;89;21222;-54
2022/12/31 04:21:28;;;;;;;31.87;15.05;;;;;;;1.26;92.80;101093.25;1607408;89;21210;-54
2022/12/31 04:24:01;;;;;;;30.02;14.78;;;;;;;1.26;92.66;101102.70;1613655;89;21822;-53
2022/12/31 04:26:31;;;;;;;29.92;15.45;;;;;;;1.21;92.58;101113.00;1607479;89;21170;-53
2022/12/31 04:29:00;;;;;;;35.85;16.50;;;;;;;1.17;92.63;101115.57;1614058;89;21217;-51
2022/12/31 04:31:33;;;;;;;30.35;14.83;;;;;;;1.16;92.88;101111.16;1622930;86;21147;-52
2022/12/31 04:34:05;;;;;;;32.90;15.45;;;;;;;1.18;93.03;101113.24;1671069;86;21132;-53
2022/12/31 04:36:35;;;;;;;32.88;15.65;;;;;;;1.19;93.11;101112.27;1642061;86;21578;-53
2022/12/31 04:39:04;;;;;;;32.88;16.27;;;;;;;1.21;93.15;101108.47;1670756;86;21198;-52
2022/12/31 04:41:34;;;;;;;36.48;17.12;;;;;;;1.23;93.33;101111.04;1671008;86;21174;-53
2022/12/31 04:44:04;;;;;;;35.95;16.35;;;;;;;1.26;93.48;101113.50;1670961;86;21254;-54
2022/12/31 04:46:34;;;;;;;35.90;16.77;;;;;;;1.29;93.70;101124.06;1671084;86;21146;-62
2022/12/31 04:49:06;;;;;;;37.78;16.57;;;;;;;1.34;93.88;101127.78;1670809;86;21158;-54
2022/12/31 04:51:36;;;;;;;39.50;16.50;;;;;;;1.36;93.96;101124.47;1670854;86;21130;-52
2022/12/31 04:54:07;;;;;;;40.12;17.65;;;;;;;1.38;94.11;101129.25;1670778;86;21159;-53
2022/12/31 04:56:37;;;;;;;46.85;20.77;;;;;;;1.37;94.23;101130.23;1670815;86;21210;-53
2022/12/31 04:59:06;;;;;;;48.48;22.25;;;;;;;1.34;94.30;101141.27;1609865;89;21205;-52
2022/12/31 05:01:35;;;;;;;46.15;21.45;;;;;;;1.31;94.52;101146.42;1586660;89;21159;-53
2022/12/31 05:04:05;;;;;;;35.48;16.00;;;;;;;1.31;94.85;101141.02;1614047;89;21164;-53
2022/12/31 05:06:35;;;;;;;36.23;17.45;;;;;;;1.33;95.14;101143.61;1613735;89;21264;-55
2022/12/31 05:09:07;;;;;;;33.42;16.17;;;;;;;1.32;95.35;101147.28;1614178;89;21169;-53
2022/12/31 05:11:37;;;;;;;35.88;16.77;;;;;;;1.33;95.65;101154.41;1614285;89;21166;-52
2022/12/31 05:14:07;;;;;;;31.75;16.20;;;;;;;1.34;95.85;101164.22;1614327;89;21150;-53
2022/12/31 05:16:36;;;;;;;30.92;15.30;;;;;;;1.33;96.10;101166.06;1613880;89;21166;-54
2022/12/31 05:19:08;;;;;;;31.48;15.18;;;;;;;1.36;96.29;101168.52;1607035;89;21609;-54
2022/12/31 05:21:38;;;;;;;34.10;15.20;;;;;;;1.38;96.38;101167.05;1606848;89;21187;-53
2022/12/31 05:24:07;;;;;;;29.65;15.58;;;;;;;1.39;96.43;101168.28;1646369;86;21143;-53
2022/12/31 05:26:37;;;;;;;34.95;17.23;;;;;;;1.38;96.47;101167.91;1665213;86;21233;-53
2022/12/31 05:29:09;;;;;;;35.95;15.90;;;;;;;1.37;96.55;101165.34;1646105;86;21163;-53
2022/12/31 05:31:38;;;;;;;31.75;14.65;;;;;;;1.38;96.62;101164.36;1646450;86;21166;-53
2022/12/31 05:34:08;;;;;;;40.43;16.30;;;;;;;1.36;96.78;101159.08;1665650;86;21119;-53
2022/12/31 05:36:37;;;;;;;40.33;17.07;;;;;;;1.38;96.94;101163.86;1665223;86;21631;-55
2022/12/31 05:39:09;;;;;;;37.55;17.55;;;;;;;1.38;97.05;101157.11;1665467;86;21142;-53
2022/12/31 05:41:38;;;;;;;34.35;16.45;;;;;;;1.38;97.23;101157.60;1665545;86;21127;-53
2022/12/31 05:44:10;;;;;;;34.48;15.75;;;;;;;1.39;97.33;101160.67;1665525;86;21579;-54
2022/12/31 05:46:39;;;;;;;35.05;16.27;;;;;;;1.38;97.49;101163.00;1665531;86;21218;-53
2022/12/31 05:49:09;;;;;;;34.78;15.48;;;;;;;1.39;97.63;101164.23;1665590;86;21127;-53
2022/12/31 05:51:39;;;;;;;32.53;15.38;;;;;;;1.40;97.74;101152.94;1665708;86;21155;-53
2022/12/31 05:54:08;;;;;;;31.77;16.60;;;;;;;1.41;97.81;101157.36;1665496;86;21586;-53
2022/12/31 05:56:38;;;;;;;32.13;16.67;;;;;;;1.40;97.88;101159.20;1665090;86;21305;-52
2022/12/31 05:59:08;;;;;;;31.02;15.15;;;;;;;1.41;98.03;101160.06;1665350;86;21186;-53
2022/12/31 06:01:39;;;;;;;31.80;15.23;;;;;;;1.39;98.10;101160.19;1665396;86;21170;-53
2022/12/31 06:04:08;;;;;;;30.82;15.23;;;;;;;1.36;98.21;101161.77;1665304;86;21194;-53
2022/12/31 06:06:39;;;;;;;33.00;15.48;;;;;;;1.36;98.33;101158.22;1615582;89;21261;-54
2022/12/31 06:09:09;;;;;;;32.70;16.25;;;;;;;1.37;98.45;101156.74;1615809;89;21217;-52
2022/12/31 06:11:38;;;;;;;35.08;17.87;;;;;;;1.40;98.57;101159.20;1616041;89;21621;-54
2022/12/31 06:14:08;;;;;;;43.38;19.17;;;;;;;1.42;98.65;101155.03;1615795;89;21158;-53
2022/12/31 06:16:39;;;;;;;38.58;17.02;;;;;;;1.41;98.69;101161.41;1616065;89;21670;-54
2022/12/31 06:19:09;;;;;;;39.70;18.65;;;;;;;1.39;98.71;101170.98;1609884;89;21668;-56
2022/12/31 06:21:38;;;;;;;40.30;17.75;;;;;;;1.39;98.82;101162.88;1581974;89;21206;-53
2022/12/31 06:24:08;;;;;;;42.13;18.30;;;;;;;1.40;98.91;101158.34;1611549;87;21175;-54
2022/12/31 06:26:38;;;;;;;42.48;20.32;;;;;;;1.39;98.90;101163.38;1648870;87;21176;-53
2022/12/31 06:29:07;;;;;;;43.75;19.25;;;;;;;1.38;99.06;101169.27;1648874;87;21183;-53
2022/12/31 06:31:38;;;;;;;50.00;19.07;;;;;;;1.41;99.34;101165.47;1648949;87;21176;-54
2022/12/31 06:34:08;;;;;;;42.67;18.67;;;;;;;1.46;99.53;101165.97;1649138;87;21151;-53
2022/12/31 06:36:39;;;;;;;47.30;18.48;;;;;;;1.49;99.51;101176.52;1649036;87;21163;-53
2022/12/31 06:39:09;;;;;;;40.85;18.12;;;;;;;1.49;99.55;101168.42;1648944;87;21578;-53
2022/12/31 06:41:39;;;;;;;40.15;17.40;;;;;;;1.51;99.61;101160.57;1648907;87;21640;-53
2022/12/31 06:44:10;;;;;;;37.88;18.17;;;;;;;1.53;99.79;101164.01;1649051;87;21341;-54
2022/12/31 06:46:44;;;;;;;48.15;19.60;;;;;;;1.58;99.96;101159.59;1648777;87;21634;-53
2022/12/31 06:49:14;;;;;;;38.45;16.10;;;;;;;1.62;100.00;101162.42;1649086;87;21605;-54
2022/12/31 06:51:47;;;;;;;34.58;16.67;;;;;;;1.68;100.00;101175.93;1631798;87;21151;-54
2022/12/31 06:54:18;;;;;;;33.28;16.00;;;;;;;1.70;100.00;101178.02;1648821;87;21175;-54
2022/12/31 06:56:48;;;;;;;38.90;16.62;;;;;;;1.72;100.00;101190.42;1648741;87;21152;-54
2022/12/31 06:59:24;;;;;;;41.75;18.52;;;;;;;1.74;100.00;101197.91;1648737;87;21645;-54
2022/12/31 07:02:32;;;;;;;40.33;17.85;;;;;;;1.76;100.00;101192.39;1648948;87;21128;-53
2022/12/31 07:05:16;;;;;;;40.30;17.30;;;;;;;1.79;100.00;101192.15;1648903;87;21191;-54
2022/12/31 07:08:08;;;;;;;37.95;16.87;;;;;;;1.81;100.00;101192.89;1648900;87;21536;-53
2022/12/31 07:11:01;;;;;;;35.20;16.50;;;;;;;1.82;100.00;101190.06;1631485;87;21152;-55
2022/12/31 07:13:53;;;;;;;42.17;17.50;;;;;;;1.80;100.00;101187.11;1608839;87;21212;-53
2022/12/31 07:16:43;;;;;;;40.05;17.32;;;;;;;1.81;100.00;101186.13;1648985;87;21227;-55
2022/12/31 07:19:30;;;;;;;39.53;17.12;;;;;;;1.81;100.00;101192.89;1621324;86;21642;-54
2022/12/31 07:22:01;;;;;;;43.48;18.17;;;;;;;1.80;100.00;101189.81;1665437;86;21248;-55
2022/12/31 07:24:32;;;;;;;38.05;17.27;;;;;;;1.80;100.00;101191.16;1665481;86;21127;-55
2022/12/31 07:27:21;;;;;;;35.33;16.25;;;;;;;1.83;100.00;101190.92;1665502;86;21190;-54
2022/12/31 07:30:02;;;;;;;32.65;16.75;;;;;;;1.84;100.00;101192.64;1665609;86;21770;-53
2022/12/31 07:32:57;;;;;;;35.17;16.37;;;;;;;1.86;100.00;101193.37;1665736;86;21598;-53
2022/12/31 07:36:24;;;;;;;37.08;16.62;;;;;;;1.87;100.00;101191.05;1665424;86;21292;-53
2022/12/31 07:39:10;;;;;;;34.58;16.20;;;;;;;1.94;100.00;101199.52;1646587;86;21182;-52
2022/12/31 07:42:00;;;;;;;32.35;15.93;;;;;;;2.01;100.00;101192.67;1665416;86;21139;-53
2022/12/31 07:44:42;;;;;;;31.48;16.80;;;;;;;2.06;100.00;101190.45;1665644;86;21278;-53
2022/12/31 07:47:24;;;;;;;33.18;17.15;;;;;;;2.09;100.00;101192.91;1665703;86;21198;-53
2022/12/31 07:49:55;;;;;;;34.58;16.23;;;;;;;2.10;100.00;101198.20;1664139;86;21158;-55
2022/12/31 07:52:26;;;;;;;30.90;16.12;;;;;;;2.15;100.00;101205.94;1665510;86;21198;-53
2022/12/31 07:54:56;;;;;;;31.50;16.20;;;;;;;2.28;100.00;101196.34;1665438;86;21130;-54
2022/12/31 07:57:30;;;;;;;30.77;16.32;;;;;;;2.53;100.00;101196.05;1665465;86;21242;-53
2022/12/31 08:00:08;;;;;;;30.15;16.52;;;;;;;2.78;100.00;101187.64;1646630;86;21620;-55
2022/12/31 08:03:40;;;;;;;43.78;18.57;;;;;;;3.11;100.00;101193.41;1646416;86;21142;-54
2022/12/31 08:06:14;;;;;;;32.83;16.75;;;;;;;3.41;100.00;101204.85;1646360;86;21166;-53
2022/12/31 08:08:51;;;;;;;29.70;16.10;;;;;;;3.70;99.89;101207.75;1647376;86;21180;-54
2022/12/31 08:11:29;;;;;;;39.33;19.45;;;;;;;3.97;99.35;101205.85;1665619;86;21563;-54
2022/12/31 08:14:01;;;;;;;40.25;20.72;;;;;;;4.24;98.61;101200.32;1665716;86;21195;-55
2022/12/31 08:16:33;;;;;;;46.50;23.57;;;;;;;4.46;97.82;101198.25;1665715;86;21198;-53
2022/12/31 08:19:03;;;;;;;43.08;22.70;;;;;;;4.67;96.85;101190.54;1665540;86;21399;-54
2022/12/31 08:21:44;;;;;;;42.60;22.98;;;;;;;4.80;95.58;101197.92;1646849;86;21563;-54
2022/12/31 08:24:59;;;;;;;42.88;22.30;;;;;;;4.83;94.35;101199.48;1665695;86;21150;-55
2022/12/31 08:28:06;;;;;;;45.15;23.85;;;;;;;4.83;93.56;101196.28;1665397;86;21723;-56
2022/12/31 08:30:58;;;;;;;46.77;23.42;;;;;;;4.83;92.27;101200.84;1590455;90;21235;-56
2022/12/31 08:33:48;;;;;;;45.05;24.55;;;;;;;4.84;91.70;101202.56;1590466;90;21161;-55
2022/12/31 08:36:47;;;;;;;42.75;24.18;;;;;;;4.82;91.09;101202.70;1535062;90;21273;-54
2022/12/31 08:39:55;;;;;;;47.30;25.52;;;;;;;4.82;90.70;101197.78;1590112;90;21229;-53
2022/12/31 08:42:37;;;;;;;48.95;26.30;;;;;;;4.83;90.20;101194.06;1560876;92;21185;-55
2022/12/31 08:45:24;;;;;;;48.85;25.68;;;;;;;4.76;89.85;101178.84;1490164;96;21199;-54
2022/12/31 08:48:03;;;;;;;46.90;25.12;;;;;;;4.70;89.79;101180.26;1477285;93;21242;-54
2022/12/31 08:50:34;;;;;;;43.00;23.83;;;;;;;4.65;89.88;101171.68;1540654;93;21318;-53
2022/12/31 08:53:05;;;;;;;44.40;24.82;;;;;;;4.63;89.93;101161.46;1540717;93;21641;-54
2022/12/31 08:55:36;;;;;;;46.73;25.90;;;;;;;4.62;90.00;101163.82;1540858;93;21253;-54
2022/12/31 08:58:46;;;;;;;46.42;23.67;;;;;;;4.62;90.14;101159.75;1540712;93;21261;-53
2022/12/31 09:01:20;;;;;;;41.05;22.13;;;;;;;4.64;90.29;101151.46;1490611;96;21188;-55
2022/12/31 09:04:04;;;;;;;39.80;21.55;;;;;;;4.66;90.39;101151.68;1509206;93;21343;-55
2022/12/31 09:06:40;;;;;;;40.78;22.37;;;;;;;4.69;90.46;101145.11;1576154;90;21165;-55
2022/12/31 09:09:52;;;;;;;46.10;23.20;;;;;;;4.72;90.44;101139.40;1590609;90;21170;-55
2022/12/31 09:12:42;;;;;;;47.10;25.40;;;;;;;4.74;90.37;101138.25;1590474;90;21468;-54
2022/12/31 09:15:29;;;;;;;45.52;24.02;;;;;;;4.71;90.16;101144.47;1590501;90;21335;-55
2022/12/31 09:18:00;;;;;;;53.42;27.07;;;;;;;4.72;90.16;101145.69;1590807;90;21620;-55
2022/12/31 09:20:32;;;;;;;53.05;25.95;;;;;;;4.74;90.15;101146.40;1566191;90;21202;-55
2022/12/31 09:23:04;;;;;;;53.05;26.12;;;;;;;4.76;90.13;101144.40;1585130;90;21586;-56
2022/12/31 09:25:36;;;;;;;59.20;29.75;;;;;;;4.80;90.06;101134.62;1615317;86;21174;-56
2022/12/31 09:28:18;;;;;;;59.42;28.38;;;;;;;4.82;90.06;101136.69;1641704;86;21211;-57
2022/12/31 09:31:05;;;;;;;64.20;31.10;;;;;;;4.85;90.08;101135.05;1642274;86;21209;-55
2022/12/31 09:34:00;;;;;;;64.22;30.27;;;;;;;4.91;90.09;101131.75;1663425;86;21841;-54
2022/12/31 09:36:44;;;;;;;67.47;30.37;;;;;;;4.96;89.93;101129.47;1632230;86;21174;-55
2022/12/31 09:39:31;;;;;;;67.03;30.72;;;;;;;4.99;89.79;101130.03;1663255;86;21147;-55
2022/12/31 09:42:29;;;;;;;61.92;30.68;;;;;;;5.04;89.70;101132.32;1663666;86;21163;-55
2022/12/31 09:45:15;;;;;;;57.65;30.05;;;;;;;5.07;89.59;101136.96;1663172;86;21143;-54
2022/12/31 09:47:56;;;;;;;60.63;28.73;;;;;;;5.13;89.55;101135.53;1663482;86;21146;-55
2022/12/31 09:50:52;;;;;;;64.80;27.52;;;;;;;5.20;89.53;101133.98;1586198;90;21257;-56
2022/12/31 09:53:42;;;;;;;56.25;25.62;;;;;;;5.27;89.42;101131.03;1561338;90;21207;-55
2022/12/31 09:56:38;;;;;;;57.15;23.50;;;;;;;5.36;89.39;101124.72;1558742;92;21214;-55
2022/12/31 09:59:31;;;;;;;48.87;23.45;;;;;;;5.47;89.34;101122.84;1586486;90;21251;-53
2022/12/31 10:02:24;;;;;;;36.13;19.90;;;;;;;5.56;89.26;101111.08;1586447;90;21210;-55
2022/12/31 10:05:22;;;;;;;37.20;17.92;;;;;;;5.65;89.13;101107.47;1585964;90;21235;-55
2022/12/31 10:08:20;;;;;;;33.23;16.12;;;;;;;5.72;88.94;101097.21;1541630;93;21225;-56
2022/12/31 10:10:58;;;;;;;33.25;15.98;;;;;;;5.80;88.74;101091.02;1541612;93;21282;-54
2022/12/31 10:13:48;;;;;;;32.05;16.00;;;;;;;5.89;88.36;101086.11;1541800;93;21324;-54
2022/12/31 10:16:40;;;;;;;35.45;15.98;;;;;;;5.95;88.04;101088.23;1586326;90;21266;-54
2022/12/31 10:19:42;;;;;;;29.18;14.68;;;;;;;6.02;87.71;101083.89;1583190;90;21202;-53
2022/12/31 10:22:35;;;;;;;32.05;15.85;;;;;;;6.08;87.51;101069.33;1578015;91;21324;-54
2022/12/31 10:25:58;;;;;;;31.42;15.23;;;;;;;6.16;87.26;101062.11;1586986;86;21700;-55
2022/12/31 10:29:11;;;;;;;33.78;16.57;;;;;;;6.20;86.92;101045.83;1552871;91;21182;-53
2022/12/31 10:32:06;;;;;;;29.40;14.65;;;;;;;6.25;86.48;101042.15;1556349;92;22011;-55
2022/12/31 10:35:03;;;;;;;28.32;15.18;;;;;;;6.27;86.07;101040.13;1552584;92;21171;-54
2022/12/31 10:38:04;;;;;;;30.45;15.98;;;;;;;6.29;85.89;101034.53;1552704;92;21183;-54
2022/12/31 10:41:19;;;;;;;33.70;16.77;;;;;;;6.29;85.70;101035.89;1552831;92;21167;-61
2022/12/31 10:44:26;;;;;;;29.35;15.32;;;;;;;6.29;85.52;101038.61;1552759;92;21175;-55
2022/12/31 10:47:21;;;;;;;31.85;16.37;;;;;;;6.28;85.34;101031.45;1599235;88;21183;-55
2022/12/31 10:50:28;;;;;;;28.47;15.45;;;;;;;6.30;85.33;101030.80;1627529;88;21158;-56
2022/12/31 10:53:25;;;;;;;28.70;14.53;;;;;;;6.29;85.18;101022.28;1628136;87;21237;-56
2022/12/31 10:56:17;;;;;;;34.05;15.45;;;;;;;6.32;85.14;101019.25;1627785;88;21179;-55
2022/12/31 10:58:54;;;;;;;32.98;16.10;;;;;;;6.33;85.14;101023.69;1627569;87;21136;-55
2022/12/31 11:01:33;;;;;;;31.80;16.17;;;;;;;6.35;85.07;101023.87;1617295;88;21196;-54
2022/12/31 11:04:42;;;;;;;31.60;15.63;;;;;;;6.39;84.89;101022.20;1605573;88;21301;-54
2022/12/31 11:07:45;;;;;;;27.10;14.45;;;;;;;6.40;84.86;101026.13;1627892;87;21135;-56
2022/12/31 11:10:54;;;;;;;30.50;14.87;;;;;;;6.42;84.79;101024.11;1627903;87;21223;-56
2022/12/31 11:14:10;;;;;;;29.35;15.30;;;;;;;6.45;84.68;101016.14;1627918;87;21156;-54
2022/12/31 11:17:14;;;;;;;30.65;15.32;;;;;;;6.46;84.46;100994.20;1583152;89;21200;-55
2022/12/31 11:19:49;;;;;;;31.10;15.18;;;;;;;6.49;84.42;100993.89;1583403;88;21163;-56
2022/12/31 11:22:41;;;;;;;27.17;13.90;;;;;;;6.52;84.29;101005.86;1613026;88;21127;-55
2022/12/31 11:25:41;;;;;;;26.97;14.05;;;;;;;6.53;84.20;101005.36;1633840;88;21634;-54
2022/12/31 11:28:32;;;;;;;28.77;13.93;;;;;;;6.55;84.09;101006.05;1633680;88;21238;-54
2022/12/31 11:31:22;;;;;;;27.75;12.30;;;;;;;6.55;84.04;101004.19;1583458;90;21696;-55
2022/12/31 11:34:23;;;;;;;22.13;10.80;;;;;;;6.57;84.09;101003.52;1583607;90;21273;-55
2022/12/31 11:37:33;;;;;;;21.12;10.03;;;;;;;6.60;84.05;101006.44;1562446;90;21257;-55
2022/12/31 11:40:35;;;;;;;19.57;9.43;;;;;;;6.62;83.80;100998.45;1512439;95;21632;-55
2022/12/31 11:43:28;;;;;;;22.20;9.85;;;;;;;6.65;83.58;100987.76;1512281;94;21296;-54
2022/12/31 11:46:31;;;;;;;22.17;10.25;;;;;;;6.67;83.51;100986.59;1487570;96;21674;-55
2022/12/31 11:49:27;;;;;;;19.00;9.73;;;;;;;6.73;83.38;100982.88;1513175;92;21290;-55
2022/12/31 11:52:18;;;;;;;21.80;10.05;;;;;;;6.77;83.13;100992.45;1586726;90;21629;-55
2022/12/31 11:55:01;;;;;;;22.87;9.90;;;;;;;6.78;82.95;100990.07;1493367;90;21226;-56
2022/12/31 11:57:35;;;;;;;20.95;10.28;;;;;;;6.78;82.70;100986.84;1602981;86;21155;-56
2022/12/31 12:00:19;;;;;;;22.25;10.58;;;;;;;6.82;82.47;100981.93;1664031;86;21151;-54
2022/12/31 12:03:01;;;;;;;21.52;10.08;;;;;;;6.82;82.42;100977.84;1612078;88;21147;-55
2022/12/31 12:05:34;;;;;;;19.77;10.45;;;;;;;6.84;82.30;100975.81;1633606;87;21210;-55
2022/12/31 12:08:03;;;;;;;20.25;10.25;;;;;;;6.86;82.20;100973.78;1633892;88;21202;-55
2022/12/31 12:10:48;;;;;;;26.17;11.22;;;;;;;6.86;81.97;100976.00;1613816;88;21721;-56
2022/12/31 12:13:24;;;;;;;23.57;10.35;;;;;;;6.87;81.87;100968.69;1633723;88;21199;-54
2022/12/31 12:16:01;;;;;;;19.50;9.93;;;;;;;6.89;81.75;100958.48;1633818;88;21182;-55
2022/12/31 12:19:05;;;;;;;22.70;9.40;;;;;;;6.90;81.74;100960.19;1633320;88;21190;-54
2022/12/31 12:21:34;;;;;;;23.10;10.88;;;;;;;6.91;81.56;100969.56;1604365;89;21159;-56